WAT4970 ENVA-ENAL
Flight info
| Callsign | WAT4970 |
|---|---|
| Flight time | 0h 32m |
| Altitude | 22000 |
| Route | GOGOX DCT DEKEB |
| Aircraft | E75L/M-SDE3GILORVW/S |
Departure
| Time | 2026-04-28 13:36 |
|---|---|
| Airport | Trondheim Airport, Værnes (ENVA) |
Arrival
| Time | 2026-04-28 14:09 |
|---|---|
| Airport | Ålesund Airport (ENAL) |
| Time | Latitude | Longitude | Altitude | Speed | Heading |
|---|---|---|---|---|---|
| 2026-04-28 13:16 | 63.45375 | 10.91257 | 36 ft | 0 kts | 90° |
| 2026-04-28 13:28 | 63.45373 | 10.91207 | 36 ft | 4 kts | 71° |
| 2026-04-28 13:28 | 63.45360 | 10.91157 | 36 ft | 4 kts | 46° |
| 2026-04-28 13:28 | 63.45348 | 10.91133 | 36 ft | 1 kts | 41° |
| 2026-04-28 13:31 | 63.45364 | 10.91141 | 22 ft | 4 kts | 2° |
| 2026-04-28 13:31 | 63.45399 | 10.91144 | 45 ft | 7 kts | 4° |
| 2026-04-28 13:31 | 63.45428 | 10.91149 | 36 ft | 1 kts | 2° |
| 2026-04-28 13:32 | 63.45447 | 10.91150 | 36 ft | 4 kts | 1° |
| 2026-04-28 13:32 | 63.45496 | 10.91147 | 36 ft | 10 kts | 359° |
| 2026-04-28 13:32 | 63.45566 | 10.91154 | 34 ft | 7 kts | 21° |
| 2026-04-28 13:32 | 63.45593 | 10.91261 | 34 ft | 9 kts | 79° |
| 2026-04-28 13:33 | 63.45595 | 10.91399 | 36 ft | 9 kts | 89° |
| 2026-04-28 13:33 | 63.45595 | 10.91582 | 36 ft | 15 kts | 90° |
| 2026-04-28 13:33 | 63.45595 | 10.91852 | 37 ft | 19 kts | 92° |
| 2026-04-28 13:33 | 63.45596 | 10.92156 | 38 ft | 20 kts | 91° |
| 2026-04-28 13:34 | 63.45594 | 10.92486 | 40 ft | 22 kts | 90° |
| 2026-04-28 13:34 | 63.45595 | 10.92832 | 44 ft | 22 kts | 91° |
| 2026-04-28 13:34 | 63.45592 | 10.93173 | 49 ft | 22 kts | 89° |
| 2026-04-28 13:34 | 63.45593 | 10.93509 | 54 ft | 22 kts | 91° |
| 2026-04-28 13:35 | 63.45599 | 10.93807 | 54 ft | 17 kts | 70° |
| 2026-04-28 13:35 | 63.45676 | 10.94016 | 58 ft | 18 kts | 44° |
| 2026-04-28 13:35 | 63.45736 | 10.94138 | 59 ft | 8 kts | 34° |
| 2026-04-28 13:35 | 63.45754 | 10.94136 | 58 ft | 2 kts | 301° |
| 2026-04-28 13:36 | 63.45757 | 10.93974 | 57 ft | 39 kts | 269° |
| 2026-04-28 13:36 | 63.45758 | 10.92697 | 43 ft | 124 kts | 271° |
| 2026-04-28 13:36 | 63.45758 | 10.90387 | 510 ft | 161 kts | 268° |
| 2026-04-28 13:36 | 63.45752 | 10.87821 | 1532 ft | 174 kts | 270° |
| 2026-04-28 13:37 | 63.45763 | 10.84943 | 2127 ft | 197 kts | 271° |
| 2026-04-28 13:37 | 63.45777 | 10.81806 | 3035 ft | 203 kts | 271° |
| 2026-04-28 13:37 | 63.45782 | 10.78536 | 3751 ft | 220 kts | 270° |
| 2026-04-28 13:37 | 63.45784 | 10.74990 | 4424 ft | 235 kts | 270° |
| 2026-04-28 13:38 | 63.45785 | 10.71230 | 5158 ft | 247 kts | 270° |
| 2026-04-28 13:38 | 63.45785 | 10.67351 | 6026 ft | 252 kts | 271° |
| 2026-04-28 13:38 | 63.45786 | 10.63405 | 6917 ft | 256 kts | 271° |
| 2026-04-28 13:38 | 63.45784 | 10.59447 | 7712 ft | 260 kts | 272° |
| 2026-04-28 13:39 | 63.45782 | 10.55381 | 8489 ft | 264 kts | 272° |
| 2026-04-28 13:39 | 63.45713 | 10.51256 | 9265 ft | 269 kts | 267° |
| 2026-04-28 13:39 | 63.45415 | 10.47084 | 10066 ft | 275 kts | 262° |
| 2026-04-28 13:39 | 63.44998 | 10.42776 | 10495 ft | 294 kts | 262° |
| 2026-04-28 13:40 | 63.44550 | 10.38162 | 10818 ft | 314 kts | 262° |
| 2026-04-28 13:40 | 63.44082 | 10.33260 | 11235 ft | 328 kts | 262° |
| 2026-04-28 13:40 | 63.43609 | 10.28233 | 11955 ft | 333 kts | 262° |
| 2026-04-28 13:40 | 63.43140 | 10.23212 | 12751 ft | 336 kts | 263° |
| 2026-04-28 13:41 | 63.42660 | 10.18072 | 13580 ft | 340 kts | 263° |
| 2026-04-28 13:41 | 63.42172 | 10.12862 | 14417 ft | 345 kts | 263° |
| 2026-04-28 13:41 | 63.41674 | 10.07583 | 15207 ft | 350 kts | 263° |
| 2026-04-28 13:41 | 63.41168 | 10.02225 | 16001 ft | 355 kts | 264° |
| 2026-04-28 13:42 | 63.40826 | 9.98632 | 16533 ft | 358 kts | 264° |
| 2026-04-28 13:42 | 63.40126 | 9.91299 | 17620 ft | 364 kts | 265° |
| 2026-04-28 13:42 | 63.39773 | 9.87623 | 18154 ft | 368 kts | 265° |
| 2026-04-28 13:42 | 63.39232 | 9.81994 | 18920 ft | 374 kts | 265° |
| 2026-04-28 13:43 | 63.38498 | 9.74423 | 19869 ft | 380 kts | 266° |
| 2026-04-28 13:43 | 63.37910 | 9.68678 | 20058 ft | 376 kts | 263° |
| 2026-04-28 13:43 | 63.37160 | 9.63235 | 20009 ft | 357 kts | 261° |
| 2026-04-28 13:43 | 63.36428 | 9.58093 | 20022 ft | 340 kts | 262° |
| 2026-04-28 13:44 | 63.35970 | 9.54790 | 20001 ft | 334 kts | 262° |
| 2026-04-28 13:44 | 63.35301 | 9.49861 | 20023 ft | 333 kts | 263° |
| 2026-04-28 13:44 | 63.34635 | 9.44918 | 20018 ft | 333 kts | 262° |
| 2026-04-28 13:44 | 63.33967 | 9.39974 | 20043 ft | 334 kts | 263° |
| 2026-04-28 13:45 | 63.33301 | 9.35037 | 20080 ft | 333 kts | 263° |
| 2026-04-28 13:45 | 63.32415 | 9.28493 | 20101 ft | 334 kts | 263° |
| 2026-04-28 13:45 | 63.31745 | 9.23543 | 20031 ft | 334 kts | 262° |
| 2026-04-28 13:45 | 63.31291 | 9.20207 | 19995 ft | 333 kts | 262° |
| 2026-04-28 13:46 | 63.30629 | 9.15358 | 19962 ft | 333 kts | 262° |
| 2026-04-28 13:46 | 63.29958 | 9.10446 | 20031 ft | 331 kts | 262° |
| 2026-04-28 13:46 | 63.29287 | 9.05543 | 20009 ft | 332 kts | 262° |
| 2026-04-28 13:46 | 63.28623 | 9.00641 | 20020 ft | 331 kts | 262° |
| 2026-04-28 13:47 | 63.27961 | 8.95742 | 20007 ft | 331 kts | 262° |
| 2026-04-28 13:47 | 63.27295 | 8.90848 | 20011 ft | 331 kts | 262° |
| 2026-04-28 13:47 | 63.26627 | 8.85947 | 20015 ft | 331 kts | 262° |
| 2026-04-28 13:47 | 63.26072 | 8.81044 | 20021 ft | 323 kts | 271° |
| 2026-04-28 13:48 | 63.25881 | 8.76190 | 20017 ft | 318 kts | 275° |
| 2026-04-28 13:48 | 63.25768 | 8.71286 | 20021 ft | 318 kts | 276° |
| 2026-04-28 13:48 | 63.25662 | 8.66364 | 19998 ft | 319 kts | 276° |
| 2026-04-28 13:48 | 63.25553 | 8.61463 | 19997 ft | 317 kts | 276° |
| 2026-04-28 13:49 | 63.25436 | 8.56564 | 20018 ft | 319 kts | 276° |
| 2026-04-28 13:49 | 63.25320 | 8.51649 | 20002 ft | 318 kts | 276° |
| 2026-04-28 13:49 | 63.25200 | 8.46737 | 20024 ft | 319 kts | 276° |
| 2026-04-28 13:49 | 63.25073 | 8.41824 | 20022 ft | 319 kts | 275° |
| 2026-04-28 13:50 | 63.24945 | 8.36981 | 20012 ft | 319 kts | 276° |
| 2026-04-28 13:50 | 63.24818 | 8.32084 | 20032 ft | 317 kts | 275° |
| 2026-04-28 13:50 | 63.24588 | 8.27184 | 20033 ft | 322 kts | 271° |
| 2026-04-28 13:50 | 63.24253 | 8.22271 | 20014 ft | 322 kts | 270° |
| 2026-04-28 13:51 | 63.23922 | 8.17359 | 20023 ft | 322 kts | 270° |
| 2026-04-28 13:51 | 63.23601 | 8.12446 | 20019 ft | 321 kts | 271° |
| 2026-04-28 13:51 | 63.23289 | 8.07540 | 20020 ft | 322 kts | 271° |
| 2026-04-28 13:51 | 63.22979 | 8.02628 | 20021 ft | 321 kts | 271° |
| 2026-04-28 13:52 | 63.22673 | 7.97790 | 20025 ft | 321 kts | 271° |
| 2026-04-28 13:52 | 63.22362 | 7.92881 | 20024 ft | 321 kts | 271° |
| 2026-04-28 13:52 | 63.22050 | 7.87974 | 20025 ft | 321 kts | 271° |
| 2026-04-28 13:52 | 63.21737 | 7.83067 | 20046 ft | 321 kts | 271° |
| 2026-04-28 13:53 | 63.21326 | 7.78112 | 19634 ft | 335 kts | 261° |
| 2026-04-28 13:53 | 63.20443 | 7.73399 | 19453 ft | 330 kts | 255° |
| 2026-04-28 13:53 | 63.19473 | 7.68728 | 18996 ft | 335 kts | 254° |
| 2026-04-28 13:53 | 63.18503 | 7.64142 | 18487 ft | 331 kts | 253° |
| 2026-04-28 13:54 | 63.17531 | 7.59549 | 18051 ft | 328 kts | 253° |
| 2026-04-28 13:54 | 63.16570 | 7.54988 | 17591 ft | 326 kts | 253° |
| 2026-04-28 13:54 | 63.15621 | 7.50491 | 17222 ft | 321 kts | 253° |
| 2026-04-28 13:54 | 63.14678 | 7.46017 | 16744 ft | 319 kts | 253° |
| 2026-04-28 13:55 | 63.13743 | 7.41597 | 16355 ft | 316 kts | 252° |
| 2026-04-28 13:55 | 63.12461 | 7.37542 | 15907 ft | 328 kts | 234° |
| 2026-04-28 13:55 | 63.10836 | 7.33981 | 15504 ft | 333 kts | 230° |
| 2026-04-28 13:55 | 63.09137 | 7.30457 | 15042 ft | 334 kts | 230° |
| 2026-04-28 13:56 | 63.07479 | 7.26981 | 14580 ft | 331 kts | 230° |
| 2026-04-28 13:56 | 63.05833 | 7.23477 | 14142 ft | 327 kts | 230° |
| 2026-04-28 13:56 | 63.04218 | 7.20019 | 13737 ft | 321 kts | 230° |
| 2026-04-28 13:56 | 63.02630 | 7.16606 | 13289 ft | 317 kts | 230° |
| 2026-04-28 13:57 | 63.01067 | 7.13243 | 12884 ft | 312 kts | 230° |
| 2026-04-28 13:57 | 62.99526 | 7.09933 | 12469 ft | 308 kts | 230° |
| 2026-04-28 13:57 | 62.98001 | 7.06659 | 12058 ft | 305 kts | 230° |
| 2026-04-28 13:57 | 62.96488 | 7.03415 | 11638 ft | 303 kts | 230° |
| 2026-04-28 13:58 | 62.94996 | 7.00221 | 11204 ft | 303 kts | 229° |
| 2026-04-28 13:58 | 62.93497 | 6.97019 | 10827 ft | 300 kts | 229° |
| 2026-04-28 13:58 | 62.91998 | 6.93819 | 10401 ft | 300 kts | 229° |
| 2026-04-28 13:58 | 62.90505 | 6.90639 | 9947 ft | 298 kts | 229° |
| 2026-04-28 13:59 | 62.89033 | 6.87517 | 9619 ft | 291 kts | 228° |
| 2026-04-28 13:59 | 62.87592 | 6.84460 | 9230 ft | 286 kts | 228° |
| 2026-04-28 13:59 | 62.86171 | 6.81448 | 8870 ft | 281 kts | 228° |
| 2026-04-28 13:59 | 62.84773 | 6.78485 | 8475 ft | 278 kts | 228° |
| 2026-04-28 14:00 | 62.83408 | 6.75599 | 8126 ft | 274 kts | 227° |
| 2026-04-28 14:00 | 62.82038 | 6.72735 | 7756 ft | 271 kts | 227° |
| 2026-04-28 14:00 | 62.80673 | 6.69926 | 7396 ft | 268 kts | 227° |
| 2026-04-28 14:00 | 62.79350 | 6.67109 | 7074 ft | 264 kts | 227° |
| 2026-04-28 14:01 | 62.78043 | 6.64321 | 6696 ft | 262 kts | 227° |
| 2026-04-28 14:01 | 62.76742 | 6.61584 | 6339 ft | 258 kts | 224° |
| 2026-04-28 14:01 | 62.75174 | 6.59777 | 5975 ft | 258 kts | 193° |
| 2026-04-28 14:01 | 62.73413 | 6.60164 | 5697 ft | 256 kts | 161° |
| 2026-04-28 14:02 | 62.71821 | 6.62019 | 5391 ft | 261 kts | 151° |
| 2026-04-28 14:02 | 62.70281 | 6.63988 | 5010 ft | 251 kts | 155° |
| 2026-04-28 14:02 | 62.68691 | 6.64927 | 4691 ft | 234 kts | 184° |
| 2026-04-28 14:02 | 62.67215 | 6.63913 | 4375 ft | 219 kts | 220° |
| 2026-04-28 14:03 | 62.66426 | 6.61222 | 4060 ft | 215 kts | 257° |
| 2026-04-28 14:03 | 62.66142 | 6.58018 | 3817 ft | 216 kts | 254° |
| 2026-04-28 14:03 | 62.65563 | 6.55004 | 3559 ft | 216 kts | 242° |
| 2026-04-28 14:03 | 62.64872 | 6.52110 | 3297 ft | 216 kts | 245° |
| 2026-04-28 14:04 | 62.64276 | 6.49114 | 3028 ft | 216 kts | 246° |
| 2026-04-28 14:04 | 62.63665 | 6.46215 | 2794 ft | 209 kts | 243° |
| 2026-04-28 14:04 | 62.63048 | 6.43429 | 2531 ft | 201 kts | 244° |
| 2026-04-28 14:04 | 62.62468 | 6.40713 | 2254 ft | 195 kts | 244° |
| 2026-04-28 14:05 | 62.61910 | 6.38102 | 2001 ft | 186 kts | 244° |
| 2026-04-28 14:05 | 62.61375 | 6.35632 | 1764 ft | 175 kts | 244° |
| 2026-04-28 14:05 | 62.60880 | 6.33338 | 1499 ft | 159 kts | 245° |
| 2026-04-28 14:05 | 62.60437 | 6.31283 | 1249 ft | 144 kts | 245° |
| 2026-04-28 14:06 | 62.60023 | 6.29370 | 1015 ft | 136 kts | 245° |
| 2026-04-28 14:06 | 62.59635 | 6.27568 | 809 ft | 128 kts | 246° |
| 2026-04-28 14:06 | 62.59265 | 6.25841 | 687 ft | 125 kts | 246° |
| 2026-04-28 14:06 | 62.58882 | 6.24153 | 620 ft | 129 kts | 244° |
| 2026-04-28 14:07 | 62.58504 | 6.22432 | 679 ft | 125 kts | 246° |
| 2026-04-28 14:07 | 62.58152 | 6.20682 | 841 ft | 130 kts | 248° |
| 2026-04-28 14:07 | 62.57752 | 6.18867 | 740 ft | 135 kts | 244° |
| 2026-04-28 14:07 | 62.57347 | 6.17076 | 565 ft | 130 kts | 245° |
| 2026-04-28 14:08 | 62.56978 | 6.15316 | 379 ft | 127 kts | 245° |
| 2026-04-28 14:08 | 62.56602 | 6.13607 | 200 ft | 123 kts | 245° |
| 2026-04-28 14:08 | 62.56246 | 6.11955 | 73 ft | 118 kts | 244° |
| 2026-04-28 14:08 | 62.55945 | 6.10578 | 69 ft | 77 kts | 245° |
| 2026-04-28 14:09 | 62.55768 | 6.09765 | 48 ft | 51 kts | 245° |
| 2026-04-28 14:09 | 62.55650 | 6.09232 | 37 ft | 25 kts | 244° |
| 2026-04-28 14:09 | 62.55612 | 6.09015 | 38 ft | 9 kts | 213° |
| 2026-04-28 14:09 | 62.55590 | 6.09069 | 39 ft | 6 kts | 53° |
| 2026-04-28 14:10 | 62.55625 | 6.09156 | 37 ft | 10 kts | 52° |
| 2026-04-28 14:10 | 62.55676 | 6.09356 | 40 ft | 25 kts | 63° |
| 2026-04-28 14:10 | 62.55771 | 6.09798 | 52 ft | 33 kts | 62° |
| 2026-04-28 14:10 | 62.55863 | 6.10164 | 55 ft | 25 kts | 68° |
| 2026-04-28 14:11 | 62.55929 | 6.10494 | 66 ft | 23 kts | 69° |
| 2026-04-28 14:11 | 62.55936 | 6.10748 | 74 ft | 13 kts | 101° |
| 2026-04-28 14:11 | 62.55918 | 6.10932 | 77 ft | 14 kts | 102° |
| 2026-04-28 14:11 | 62.55902 | 6.11132 | 77 ft | 12 kts | 84° |
| 2026-04-28 14:12 | 62.55930 | 6.11277 | 70 ft | 9 kts | 65° |
| 2026-04-28 14:12 | 62.55932 | 6.11353 | 77 ft | 4 kts | 139° |
| 2026-04-28 14:12 | 62.55906 | 6.11382 | 73 ft | 4 kts | 154° |
| 2026-04-28 14:12 | 62.55895 | 6.11394 | 74 ft | 0 kts | 154° |
| 2026-04-28 14:13 | 62.55587 | 6.09059 | 129 ft | 6 kts | 66° |
| 2026-04-28 14:13 | 62.57047 | 6.15643 | 416 ft | 128 kts | 246° |
| 2026-04-28 14:13 | 62.56312 | 6.12269 | 71 ft | 122 kts | 246° |
| 2026-04-28 14:14 | 62.56218 | 6.11828 | 71 ft | 115 kts | 245° |
| 2026-04-28 14:14 | 62.56093 | 6.11254 | 83 ft | 105 kts | 245° |